createdAt,value
2018-08-22T00:01:10.830Z,55.30
2018-08-22T00:03:39.166Z,55.30
2018-08-22T00:06:07.590Z,55.30
2018-08-22T00:08:41.149Z,55.30
2018-08-22T00:11:09.544Z,55.30
2018-08-22T00:13:37.868Z,55.40
2018-08-22T00:16:06.323Z,55.50
2018-08-22T00:18:34.728Z,55.60
2018-08-22T00:21:03.067Z,55.60
2018-08-22T00:23:31.423Z,55.70
2018-08-22T00:25:59.891Z,55.90
2018-08-22T00:28:28.232Z,55.80
2018-08-22T00:30:56.543Z,56.00
2018-08-22T00:33:25.897Z,56.00
2018-08-22T00:35:54.337Z,56.00
2018-08-22T00:38:22.687Z,56.00
2018-08-22T00:40:51.057Z,55.90
2018-08-22T00:43:19.346Z,56.50
2018-08-22T00:45:47.792Z,55.60
2018-08-22T00:48:16.154Z,55.80
2018-08-22T00:50:44.503Z,56.40
2018-08-22T00:53:12.813Z,55.80
2018-08-22T00:55:41.211Z,55.90
2018-08-22T00:58:09.607Z,55.80
2018-08-22T01:00:38.019Z,55.80
2018-08-22T01:03:06.473Z,55.80
2018-08-22T01:05:34.789Z,55.90
2018-08-22T01:08:03.118Z,55.90
2018-08-22T01:10:31.454Z,56.00
2018-08-22T01:12:59.907Z,56.00
2018-08-22T01:15:28.218Z,56.00
2018-08-22T01:17:57.187Z,56.10
2018-08-22T01:20:25.573Z,56.20
2018-08-22T01:22:54.013Z,56.40
2018-08-22T01:25:22.363Z,56.50
2018-08-22T01:27:50.663Z,56.50
2018-08-22T01:30:19.005Z,56.80
2018-08-22T01:32:47.314Z,56.90
2018-08-22T01:35:16.420Z,57.00
2018-08-22T01:37:44.747Z,57.10
2018-08-22T01:40:13.767Z,57.10
2018-08-22T01:42:42.118Z,57.20
2018-08-22T01:45:10.433Z,57.20
2018-08-22T01:47:38.812Z,57.40
2018-08-22T01:50:07.765Z,57.30
2018-08-22T01:52:36.092Z,57.10
2018-08-22T01:55:04.435Z,57.10
2018-08-22T01:57:32.767Z,57.00
2018-08-22T02:00:01.104Z,57.10
2018-08-22T02:02:29.398Z,57.00
2018-08-22T02:04:57.738Z,57.20
2018-08-22T02:07:26.090Z,57.20
2018-08-22T02:09:54.433Z,57.40
2018-08-22T02:12:22.800Z,57.40
2018-08-22T02:14:51.282Z,57.30
2018-08-22T02:17:19.636Z,57.50
2018-08-22T02:19:48.561Z,57.40
2018-08-22T02:22:17.859Z,57.40
2018-08-22T02:24:46.216Z,57.50
2018-08-22T02:27:14.521Z,57.60
2018-08-22T02:29:42.830Z,57.70
2018-08-22T02:32:11.167Z,57.70
2018-08-22T02:34:39.518Z,57.80
2018-08-22T02:37:07.823Z,57.70
2018-08-22T02:39:36.168Z,57.70
2018-08-22T02:42:04.771Z,57.80
2018-08-22T02:44:33.080Z,57.90
2018-08-22T02:47:01.404Z,58.00
2018-08-22T02:49:30.022Z,58.00
2018-08-22T02:51:58.788Z,58.00
2018-08-22T02:54:27.204Z,58.00
2018-08-22T02:56:56.272Z,58.00
2018-08-22T02:59:24.658Z,58.10
2018-08-22T03:01:53.027Z,58.30
2018-08-22T03:04:21.340Z,58.10
2018-08-22T03:06:49.652Z,58.20
2018-08-22T03:09:18.026Z,58.10
2018-08-22T03:11:46.469Z,58.50
2018-08-22T03:14:14.800Z,58.40
2018-08-22T03:16:43.977Z,58.40
2018-08-22T03:19:12.334Z,58.40
2018-08-22T03:21:40.674Z,58.50
2018-08-22T03:24:09.008Z,58.50
2018-08-22T03:26:37.324Z,58.40
2018-08-22T03:29:06.243Z,58.50
2018-08-22T03:31:35.310Z,58.70
2018-08-22T03:34:03.642Z,58.90
2018-08-22T03:36:32.077Z,58.90
2018-08-22T03:39:00.398Z,58.90
2018-08-22T03:41:28.756Z,58.80
2018-08-22T03:43:57.804Z,58.90
2018-08-22T03:46:26.106Z,58.90
2018-08-22T03:48:54.472Z,58.80
2018-08-22T03:51:22.811Z,58.80
2018-08-22T03:53:51.137Z,58.80
2018-08-22T03:56:19.507Z,58.80
2018-08-22T03:58:47.815Z,58.80
2018-08-22T04:01:16.193Z,58.70
2018-08-22T04:03:44.518Z,58.70
2018-08-22T04:06:12.828Z,58.70
2018-08-22T04:08:41.162Z,58.70
2018-08-22T04:11:09.492Z,58.70
2018-08-22T04:13:38.028Z,58.80
2018-08-22T04:16:06.990Z,59.00
2018-08-22T04:18:35.319Z,59.00
2018-08-22T04:21:04.335Z,59.20
2018-08-22T04:23:32.691Z,59.00
2018-08-22T04:26:01.044Z,58.70
2018-08-22T04:28:29.366Z,58.80
2018-08-22T04:30:58.217Z,59.00
2018-08-22T04:33:26.530Z,59.10
2018-08-22T04:35:54.906Z,59.30
2018-08-22T04:38:23.256Z,59.20
2018-08-22T04:40:51.598Z,59.40
2018-08-22T04:43:19.930Z,59.60
2018-08-22T04:45:48.280Z,59.50
2018-08-22T04:48:17.236Z,59.50
2018-08-22T04:50:45.578Z,59.50
2018-08-22T04:53:14.604Z,59.70
2018-08-22T04:55:42.924Z,59.70
2018-08-22T04:58:11.302Z,59.80
2018-08-22T05:00:39.704Z,59.80
2018-08-22T05:03:08.059Z,59.90
2018-08-22T05:05:36.400Z,60.00
2018-08-22T05:08:05.868Z,60.00
2018-08-22T05:10:34.184Z,60.00
2018-08-22T05:13:02.724Z,59.80
2018-08-22T05:15:31.068Z,59.90
2018-08-22T05:17:59.381Z,60.00
2018-08-22T05:20:27.723Z,60.00
2018-08-22T05:22:56.170Z,60.10
2018-08-22T05:25:25.576Z,60.10
2018-08-22T05:27:53.963Z,60.10
2018-08-22T05:30:22.322Z,60.10
2018-08-22T05:32:50.734Z,60.10
2018-08-22T05:35:19.093Z,60.00
2018-08-22T05:37:47.569Z,59.80
2018-08-22T05:40:15.946Z,59.50
2018-08-22T05:42:44.306Z,59.40
2018-08-22T05:45:12.684Z,58.80
2018-08-22T05:47:41.047Z,58.80
2018-08-22T05:50:10.090Z,58.80
2018-08-22T05:52:38.456Z,58.50
2018-08-22T05:55:06.812Z,58.10
2018-08-22T05:57:35.957Z,58.30
2018-08-22T06:00:04.966Z,58.30
2018-08-22T06:02:33.287Z,58.00
2018-08-22T06:05:01.744Z,57.90
2018-08-22T06:07:30.140Z,57.50
2018-08-22T06:09:58.524Z,57.30
2018-08-22T06:12:26.939Z,57.10
2018-08-22T06:14:55.315Z,56.90
2018-08-22T06:17:23.752Z,57.10
2018-08-22T06:19:52.073Z,57.50
2018-08-22T06:22:20.412Z,56.70
2018-08-22T06:24:48.744Z,56.70
2018-08-22T06:27:17.069Z,56.80
2018-08-22T06:29:45.407Z,56.30
2018-08-22T06:32:13.852Z,56.60
2018-08-22T06:34:42.192Z,56.70
2018-08-22T06:37:10.523Z,56.80
2018-08-22T06:39:39.421Z,56.80
2018-08-22T06:42:07.848Z,57.40
2018-08-22T06:44:36.176Z,58.30
2018-08-22T06:47:04.596Z,59.10
2018-08-22T06:49:32.958Z,60.00
2018-08-22T06:52:01.458Z,59.10
2018-08-22T06:54:30.358Z,58.10
2018-08-22T06:56:58.723Z,57.70
2018-08-22T06:59:27.072Z,57.30
2018-08-22T07:01:55.414Z,56.70
2018-08-22T07:04:23.788Z,57.00
2018-08-22T07:06:52.210Z,56.70
2018-08-22T07:09:20.542Z,56.00
2018-08-22T07:11:48.910Z,55.60
2018-08-22T07:14:17.234Z,54.30
2018-08-22T07:16:45.592Z,54.50
2018-08-22T07:19:13.932Z,54.40
2018-08-22T07:21:42.464Z,52.70
2018-08-22T07:24:11.557Z,51.50
2018-08-22T07:26:39.923Z,51.60
2018-08-22T07:29:08.272Z,51.70
2018-08-22T07:31:36.583Z,51.30
2018-08-22T07:34:05.028Z,51.00
2018-08-22T07:36:33.452Z,50.50
2018-08-22T07:39:01.778Z,50.10
2018-08-22T07:41:30.144Z,49.40
2018-08-22T07:43:58.487Z,48.70
2018-08-22T07:46:26.846Z,47.40
2018-08-22T07:48:55.188Z,47.40
2018-08-22T07:51:23.580Z,46.90
2018-08-22T07:53:51.960Z,45.80
2018-08-22T07:56:21.199Z,45.70
2018-08-22T07:58:59.487Z,45.60
2018-08-22T08:01:27.928Z,45.70
2018-08-22T08:03:56.260Z,45.20
2018-08-22T08:06:24.637Z,45.20
2018-08-22T08:08:53.054Z,45.20
2018-08-22T08:11:21.436Z,44.70
2018-08-22T08:13:49.843Z,44.70
2018-08-22T08:16:18.237Z,43.50
2018-08-22T08:18:46.632Z,41.60
2018-08-22T08:21:14.955Z,41.50
2018-08-22T08:23:43.308Z,41.00
2018-08-22T08:26:11.839Z,40.50
2018-08-22T08:28:40.097Z,40.70
2018-08-22T08:31:08.464Z,40.60
2018-08-22T08:33:36.787Z,40.50
2018-08-22T08:36:05.188Z,40.20
2018-08-22T08:38:33.588Z,39.80
2018-08-22T08:41:02.457Z,39.70
2018-08-22T08:43:31.563Z,39.20
2018-08-22T08:46:00.658Z,39.40
2018-08-22T08:48:29.011Z,39.60
2018-08-22T08:50:57.375Z,39.70
2018-08-22T08:53:25.743Z,39.00
2018-08-22T08:55:54.119Z,37.80
2018-08-22T08:58:22.463Z,38.50
2018-08-22T09:00:50.812Z,38.60
2018-08-22T09:03:19.190Z,37.70
2018-08-22T09:05:47.561Z,37.70
2018-08-22T09:08:16.718Z,38.10
2018-08-22T09:10:45.111Z,37.10
2018-08-22T09:13:13.412Z,37.50
2018-08-22T09:15:42.225Z,36.80
2018-08-22T09:18:10.623Z,36.30
2018-08-22T09:20:39.450Z,36.10
2018-08-22T09:23:07.795Z,35.10
2018-08-22T09:25:36.173Z,35.70
2018-08-22T09:28:04.582Z,35.30
2018-08-22T09:30:33.088Z,35.20
2018-08-22T09:33:01.501Z,35.20
2018-08-22T09:35:30.253Z,35.30
2018-08-22T09:37:58.674Z,35.20
2018-08-22T09:40:27.007Z,33.00
2018-08-22T09:42:55.348Z,34.40
2018-08-22T09:45:23.730Z,32.80
2018-08-22T09:47:52.062Z,33.30
2018-08-22T09:50:20.496Z,30.70
2018-08-22T09:52:48.850Z,32.60
2018-08-22T09:55:17.208Z,32.00
2018-08-22T09:57:45.614Z,32.50
2018-08-22T10:00:19.354Z,32.20
2018-08-22T10:02:47.768Z,31.80
2018-08-22T10:05:16.108Z,32.10
2018-08-22T10:07:44.676Z,31.40
2018-08-22T10:10:13.038Z,31.30
2018-08-22T10:12:41.375Z,30.40
2018-08-22T10:15:09.377Z,30.70
2018-08-22T10:17:37.731Z,30.50
2018-08-22T10:20:06.394Z,30.30
2018-08-22T10:22:34.724Z,30.30
2018-08-22T10:25:03.119Z,29.20
2018-08-22T10:27:31.559Z,29.10
2018-08-22T10:29:59.911Z,29.10
2018-08-22T10:32:28.238Z,29.90
2018-08-22T10:34:56.589Z,28.90
2018-08-22T10:37:24.912Z,29.00
2018-08-22T10:39:53.817Z,28.50
2018-08-22T10:42:22.163Z,28.60
2018-08-22T10:44:50.477Z,28.90
2018-08-22T10:47:18.804Z,28.50
2018-08-22T10:49:47.273Z,26.80
2018-08-22T10:52:15.595Z,27.00
2018-08-22T10:54:44.519Z,27.10
2018-08-22T10:57:12.913Z,27.50
2018-08-22T10:59:41.895Z,27.70
2018-08-22T11:02:10.246Z,26.30
2018-08-22T11:04:38.591Z,27.30
2018-08-22T11:07:06.989Z,27.20
2018-08-22T11:09:35.444Z,25.60
2018-08-22T11:12:03.810Z,25.80
2018-08-22T11:14:32.172Z,25.00
2018-08-22T11:17:00.589Z,25.50
2018-08-22T11:19:28.938Z,26.10
2018-08-22T11:22:08.552Z,24.40
2018-08-22T11:24:48.028Z,25.10
2018-08-22T11:27:27.462Z,24.50
2018-08-22T11:30:07.175Z,25.00
2018-08-22T11:32:46.808Z,25.10
2018-08-22T11:35:14.102Z,24.60
2018-08-22T11:37:42.492Z,25.30
2018-08-22T11:40:10.846Z,24.80
2018-08-22T11:42:39.328Z,24.70
2018-08-22T11:45:07.721Z,24.70
2018-08-22T11:47:36.106Z,24.80
2018-08-22T11:50:04.494Z,24.50
2018-08-22T11:55:07.612Z,24.40
2018-08-22T11:57:35.956Z,24.50
2018-08-22T12:00:05.512Z,25.00
2018-08-22T12:02:33.986Z,24.60
2018-08-22T12:05:02.356Z,24.50
2018-08-22T12:07:31.315Z,24.50
2018-08-22T12:09:59.669Z,24.60
2018-08-22T12:12:28.115Z,25.00
2018-08-22T12:14:56.591Z,24.60
2018-08-22T12:17:24.970Z,24.60
2018-08-22T12:19:53.910Z,24.20
2018-08-22T12:22:22.267Z,23.70
2018-08-22T12:24:50.656Z,23.40
2018-08-22T12:27:19.017Z,22.80
2018-08-22T12:29:47.419Z,23.30
2018-08-22T12:32:15.815Z,23.50
2018-08-22T12:34:44.232Z,22.90
2018-08-22T12:37:12.628Z,21.90
2018-08-22T12:39:40.954Z,21.80
2018-08-22T12:42:09.296Z,21.80
2018-08-22T12:44:38.056Z,22.70
2018-08-22T12:47:06.351Z,22.90
2018-08-22T12:49:34.712Z,23.20
2018-08-22T12:52:03.150Z,22.40
2018-08-22T12:54:31.504Z,22.80
2018-08-22T12:56:59.858Z,20.40
2018-08-22T12:59:28.211Z,20.70
2018-08-22T13:01:56.633Z,20.50
2018-08-22T13:04:25.070Z,21.30
2018-08-22T13:06:53.419Z,21.00
2018-08-22T13:09:22.368Z,20.50
2018-08-22T13:11:50.726Z,21.60
2018-08-22T13:14:19.119Z,21.50
2018-08-22T13:16:47.837Z,21.10
2018-08-22T13:19:16.274Z,20.60
2018-08-22T13:21:44.772Z,20.70
2018-08-22T13:24:13.237Z,21.50
2018-08-22T13:26:42.355Z,21.10
2018-08-22T13:29:10.804Z,20.70
2018-08-22T13:31:39.184Z,20.80
2018-08-22T13:34:07.628Z,20.80
2018-08-22T13:36:36.024Z,20.70
2018-08-22T13:39:06.159Z,20.80
2018-08-22T13:41:35.034Z,20.90
2018-08-22T13:44:03.418Z,20.90
2018-08-22T13:46:33.008Z,20.70
2018-08-22T13:49:01.480Z,20.70
2018-08-22T13:51:29.882Z,20.10
2018-08-22T13:53:58.298Z,20.40
2018-08-22T13:56:27.200Z,20.90
2018-08-22T13:58:56.344Z,20.90
2018-08-22T14:01:24.784Z,20.40
2018-08-22T14:03:53.147Z,20.30
2018-08-22T14:06:21.534Z,20.70
2018-08-22T14:08:49.892Z,20.60
2018-08-22T14:11:18.320Z,19.80
2018-08-22T14:13:46.835Z,19.50
2018-08-22T14:16:15.222Z,19.10
2018-08-22T14:18:43.637Z,19.10
2018-08-22T14:21:12.578Z,19.30
2018-08-22T14:23:41.030Z,19.40
2018-08-22T14:26:09.390Z,19.80
2018-08-22T14:28:37.781Z,19.40
2018-08-22T14:31:06.218Z,19.60
2018-08-22T14:33:34.668Z,19.10
2018-08-22T14:36:03.076Z,19.60
2018-08-22T14:38:31.446Z,20.20
2018-08-22T14:40:59.825Z,20.20
2018-08-22T14:43:28.788Z,19.50
2018-08-22T14:45:57.141Z,20.00
2018-08-22T14:48:25.494Z,20.60
2018-08-22T14:50:53.922Z,20.60
2018-08-22T14:53:22.342Z,20.60
2018-08-22T14:55:50.898Z,20.40
2018-08-22T14:58:19.176Z,20.40
2018-08-22T15:00:47.590Z,20.50
2018-08-22T15:03:16.152Z,19.70
2018-08-22T15:05:45.003Z,19.80
2018-08-22T15:10:48.599Z,19.50
2018-08-22T15:13:17.721Z,19.60
2018-08-22T15:15:46.088Z,19.20
2018-08-22T15:18:14.501Z,18.60
2018-08-22T15:20:42.848Z,19.30
2018-08-22T15:23:11.297Z,18.90
2018-08-22T15:25:39.616Z,17.80
2018-08-22T15:28:07.991Z,17.50
2018-08-22T15:30:36.349Z,17.50
2018-08-22T15:33:05.240Z,17.60
2018-08-22T15:35:33.592Z,17.80
2018-08-22T15:38:01.982Z,17.60
2018-08-22T15:40:30.373Z,17.20
2018-08-22T15:42:59.097Z,17.80
2018-08-22T15:45:27.455Z,17.50
2018-08-22T15:47:55.949Z,17.00
2018-08-22T15:50:24.606Z,17.00
2018-08-22T15:52:53.099Z,16.90
2018-08-22T15:55:21.474Z,17.30
2018-08-22T15:57:59.506Z,17.40
2018-08-22T16:00:33.017Z,17.60
2018-08-22T16:03:02.742Z,17.50
2018-08-22T16:05:31.302Z,18.20
2018-08-22T16:08:00.335Z,18.30
2018-08-22T16:10:29.180Z,18.20
2018-08-22T16:12:57.563Z,18.40
2018-08-22T16:15:26.783Z,18.80
2018-08-22T16:17:56.116Z,18.80
2018-08-22T16:20:26.395Z,19.20
2018-08-22T16:22:55.644Z,19.40
2018-08-22T16:25:28.782Z,19.30
2018-08-22T16:27:57.157Z,19.20
2018-08-22T16:30:25.599Z,20.20
2018-08-22T16:32:55.383Z,19.80
2018-08-22T16:35:23.832Z,20.20
2018-08-22T16:38:00.600Z,20.00
2018-08-22T16:40:31.121Z,18.70
2018-08-22T16:42:59.489Z,19.10
2018-08-22T16:45:27.850Z,18.80
2018-08-22T16:47:56.225Z,18.50
2018-08-22T16:50:25.801Z,18.60
2018-08-22T16:52:54.686Z,19.10
2018-08-22T16:55:24.280Z,19.00
2018-08-22T16:57:53.160Z,19.70
2018-08-22T17:00:36.941Z,20.30
2018-08-22T17:03:06.754Z,19.80
2018-08-22T17:05:35.455Z,20.20
2018-08-22T17:08:04.449Z,20.30
2018-08-22T17:10:50.578Z,20.60
2018-08-22T17:13:30.586Z,20.10
2018-08-22T17:16:00.160Z,21.10
2018-08-22T17:18:28.561Z,21.30
2018-08-22T17:20:57.051Z,21.80
2018-08-22T17:23:25.425Z,22.20
2018-08-22T17:25:53.834Z,22.70
2018-08-22T17:28:26.287Z,22.50
2018-08-22T17:30:54.656Z,22.50
2018-08-22T17:33:26.585Z,22.30
2018-08-22T17:35:57.357Z,22.30
2018-08-22T17:38:26.208Z,23.00
2018-08-22T17:40:54.717Z,23.40
2018-08-22T17:43:23.061Z,23.70
2018-08-22T17:45:51.622Z,23.70
2018-08-22T17:48:21.637Z,24.30
2018-08-22T17:50:50.412Z,25.00
2018-08-22T17:53:19.442Z,25.30
2018-08-22T17:55:49.483Z,25.40
2018-08-22T17:58:18.425Z,25.50
2018-08-22T18:00:46.857Z,26.20
2018-08-22T18:03:15.244Z,26.40
2018-08-22T18:05:43.640Z,27.10
2018-08-22T18:08:11.992Z,27.50
2018-08-22T18:10:40.652Z,27.10
2018-08-22T18:13:17.300Z,27.30
2018-08-22T18:15:46.351Z,27.80
2018-08-22T18:18:14.781Z,28.10
2018-08-22T18:20:46.494Z,28.20
2018-08-22T18:23:15.145Z,28.20
2018-08-22T18:25:48.832Z,28.70
2018-08-22T18:28:17.292Z,29.00
2018-08-22T18:30:46.041Z,28.90
2018-08-22T18:33:14.494Z,29.10
2018-08-22T18:35:44.437Z,29.60
2018-08-22T18:38:12.796Z,29.40
2018-08-22T18:40:41.260Z,29.70
2018-08-22T18:43:09.937Z,30.00
2018-08-22T18:46:09.600Z,30.30
2018-08-22T18:48:38.088Z,30.80
2018-08-22T18:51:06.487Z,31.20
2018-08-22T18:53:34.918Z,31.70
2018-08-22T18:56:10.953Z,32.90
2018-08-22T18:58:39.707Z,33.50
2018-08-22T19:01:08.105Z,33.60
2018-08-22T19:03:36.694Z,33.30
2018-08-22T19:06:05.855Z,32.80
2018-08-22T19:08:36.149Z,32.70
2018-08-22T19:11:04.668Z,33.20
2018-08-22T19:13:33.015Z,34.10
2018-08-22T19:16:02.959Z,34.40
2018-08-22T19:18:31.361Z,35.20
2018-08-22T19:21:01.438Z,35.40
2018-08-22T19:23:30.322Z,35.30
2018-08-22T19:25:59.614Z,35.30
2018-08-22T19:28:27.981Z,35.30
2018-08-22T19:30:56.369Z,35.20
2018-08-22T19:33:25.791Z,34.60
2018-08-22T19:35:54.792Z,35.10
2018-08-22T19:38:24.492Z,34.50
2018-08-22T19:40:52.914Z,34.60
2018-08-22T19:43:21.266Z,34.70
2018-08-22T19:45:49.694Z,35.10
2018-08-22T19:48:18.117Z,35.60
2018-08-22T19:50:46.472Z,35.80
2018-08-22T19:53:14.888Z,35.90
2018-08-22T19:55:43.349Z,36.00
2018-08-22T19:58:15.069Z,35.90
2018-08-22T20:00:43.444Z,36.40
2018-08-22T20:03:14.869Z,36.70
2018-08-22T20:05:51.428Z,37.00
2018-08-22T20:08:24.044Z,38.00
2018-08-22T20:10:52.477Z,38.40
2018-08-22T20:13:20.844Z,38.10
2018-08-22T20:15:49.227Z,38.40
2018-08-22T20:18:18.537Z,39.20
2018-08-22T20:20:46.967Z,40.00
2018-08-22T20:23:15.470Z,39.80
2018-08-22T20:25:43.777Z,40.40
2018-08-22T20:28:12.158Z,40.40
2018-08-22T20:30:40.551Z,41.00
2018-08-22T20:33:09.946Z,41.20
2018-08-22T20:35:39.731Z,41.20
2018-08-22T20:38:09.620Z,41.10
2018-08-22T20:40:38.015Z,41.50
2018-08-22T20:43:09.255Z,41.70
2018-08-22T20:45:38.534Z,41.90
2018-08-22T20:48:10.858Z,42.10
2018-08-22T20:50:41.568Z,42.60
2018-08-22T20:53:13.572Z,42.40
2018-08-22T20:55:42.705Z,42.50
2018-08-22T20:58:17.484Z,42.60
2018-08-22T21:00:45.858Z,42.90
2018-08-22T21:03:14.594Z,43.70
2018-08-22T21:05:42.950Z,43.70
2018-08-22T21:08:11.981Z,43.70
2018-08-22T21:10:40.469Z,43.70
2018-08-22T21:13:23.828Z,43.60
2018-08-22T21:15:52.701Z,43.60
2018-08-22T21:18:21.047Z,43.40
2018-08-22T21:20:49.400Z,43.40
2018-08-22T21:23:17.717Z,43.80
2018-08-22T21:25:46.332Z,43.80
2018-08-22T21:28:14.824Z,44.00
2018-08-22T21:30:50.197Z,44.00
2018-08-22T21:33:18.690Z,44.40
2018-08-22T21:35:47.026Z,45.10
2018-08-22T21:38:18.415Z,45.10
2018-08-22T21:40:46.891Z,45.20
2018-08-22T21:43:15.284Z,45.40
2018-08-22T21:45:43.758Z,45.50
2018-08-22T21:48:17.112Z,45.60
2018-08-22T21:50:45.888Z,45.70
2018-08-22T21:53:14.389Z,45.60
2018-08-22T21:55:44.066Z,45.70
2018-08-22T21:58:13.514Z,45.80
2018-08-22T22:00:42.732Z,46.00
2018-08-22T22:03:11.969Z,46.70
2018-08-22T22:05:55.828Z,46.20
2018-08-22T22:08:24.309Z,46.10
2018-08-22T22:10:59.052Z,46.10
2018-08-22T22:13:27.472Z,46.70
2018-08-22T22:16:00.305Z,46.90
2018-08-22T22:18:30.439Z,47.10
2018-08-22T22:21:10.051Z,47.30
2018-08-22T22:23:44.565Z,47.50
2018-08-22T22:26:13.358Z,47.60
2018-08-22T22:28:41.962Z,47.50
2018-08-22T22:31:12.177Z,48.20
2018-08-22T22:34:03.346Z,47.90
2018-08-22T22:36:32.785Z,48.00
2018-08-22T22:39:01.287Z,48.10
2018-08-22T22:41:30.755Z,48.00
2018-08-22T22:43:59.204Z,48.30
2018-08-22T22:46:27.662Z,48.60
2018-08-22T22:48:56.038Z,48.90
2018-08-22T22:51:24.411Z,49.00
2018-08-22T22:53:52.755Z,49.20
2018-08-22T22:56:21.140Z,49.10
2018-08-22T22:58:50.630Z,49.20
2018-08-22T23:01:19.008Z,49.20
2018-08-22T23:03:47.342Z,49.70
2018-08-22T23:06:15.704Z,49.90
2018-08-22T23:08:45.108Z,50.00
2018-08-22T23:11:13.452Z,50.00
2018-08-22T23:13:41.885Z,50.10
2018-08-22T23:16:10.313Z,50.00
2018-08-22T23:18:39.477Z,50.00
2018-08-22T23:21:07.829Z,50.00
2018-08-22T23:23:37.106Z,49.90
2018-08-22T23:26:15.305Z,49.80
2018-08-22T23:28:44.640Z,50.00
2018-08-22T23:31:15.756Z,50.20
2018-08-22T23:33:44.092Z,50.30
2018-08-22T23:36:13.023Z,50.90
2018-08-22T23:38:41.350Z,51.60
2018-08-22T23:41:09.855Z,51.50
2018-08-22T23:43:43.413Z,51.40
2018-08-22T23:46:12.765Z,51.30
2018-08-22T23:48:41.909Z,51.70
2018-08-22T23:51:12.345Z,51.60
2018-08-22T23:53:44.702Z,51.60
2018-08-22T23:56:19.973Z,51.60
2018-08-22T23:58:49.109Z,51.50
